sensor_id;sensor_type;location;lat;lon;timestamp;temperature;humidity
69054;DHT22;56125;52.242;4.756;2023-09-19T00:00:32;22.80;61.00
69054;DHT22;56125;52.242;4.756;2023-09-19T00:05:36;22.80;60.90
69054;DHT22;56125;52.242;4.756;2023-09-19T00:10:37;22.80;60.70
69054;DHT22;56125;52.242;4.756;2023-09-19T00:15:43;22.80;60.60
69054;DHT22;56125;52.242;4.756;2023-09-19T00:20:49;22.80;60.60
69054;DHT22;56125;52.242;4.756;2023-09-19T00:25:51;22.80;60.60
69054;DHT22;56125;52.242;4.756;2023-09-19T00:30:52;22.80;60.00
69054;DHT22;56125;52.242;4.756;2023-09-19T00:35:54;22.70;60.50
69054;DHT22;56125;52.242;4.756;2023-09-19T00:40:56;22.70;60.40
69054;DHT22;56125;52.242;4.756;2023-09-19T00:46:00;22.70;60.20
69054;DHT22;56125;52.242;4.756;2023-09-19T00:51:04;22.70;60.20
69054;DHT22;56125;52.242;4.756;2023-09-19T00:56:05;22.70;60.20
69054;DHT22;56125;52.242;4.756;2023-09-19T01:01:07;22.70;60.20
69054;DHT22;56125;52.242;4.756;2023-09-19T01:06:08;22.70;60.00
69054;DHT22;56125;52.242;4.756;2023-09-19T01:11:24;22.70;60.00
69054;DHT22;56125;52.242;4.756;2023-09-19T01:16:35;22.70;60.20
69054;DHT22;56125;52.242;4.756;2023-09-19T01:27:23;22.60;59.80
69054;DHT22;56125;52.242;4.756;2023-09-19T01:32:26;22.60;60.00
69054;DHT22;56125;52.242;4.756;2023-09-19T01:37:27;22.60;59.80
69054;DHT22;56125;52.242;4.756;2023-09-19T01:42:42;22.60;60.00
69054;DHT22;56125;52.242;4.756;2023-09-19T01:47:51;22.60;59.80
69054;DHT22;56125;52.242;4.756;2023-09-19T01:53:02;22.70;60.10
69054;DHT22;56125;52.242;4.756;2023-09-19T01:58:28;22.60;60.10
69054;DHT22;56125;52.242;4.756;2023-09-19T02:03:33;22.60;59.90
69054;DHT22;56125;52.242;4.756;2023-09-19T02:08:35;22.60;60.10
69054;DHT22;56125;52.242;4.756;2023-09-19T02:13:37;22.60;60.30
69054;DHT22;56125;52.242;4.756;2023-09-19T02:18:39;22.60;60.30
69054;DHT22;56125;52.242;4.756;2023-09-19T02:23:40;22.60;60.20
69054;DHT22;56125;52.242;4.756;2023-09-19T02:28:41;22.50;60.50
69054;DHT22;56125;52.242;4.756;2023-09-19T02:33:43;22.50;60.40
69054;DHT22;56125;52.242;4.756;2023-09-19T02:38:44;22.50;60.40
69054;DHT22;56125;52.242;4.756;2023-09-19T02:43:45;22.50;60.40
69054;DHT22;56125;52.242;4.756;2023-09-19T02:48:46;22.50;60.40
69054;DHT22;56125;52.242;4.756;2023-09-19T02:53:48;22.50;60.30
69054;DHT22;56125;52.242;4.756;2023-09-19T02:58:49;22.50;60.40
69054;DHT22;56125;52.242;4.756;2023-09-19T03:03:52;22.50;60.40
69054;DHT22;56125;52.242;4.756;2023-09-19T03:08:54;22.50;60.40
69054;DHT22;56125;52.242;4.756;2023-09-19T03:13:57;22.50;60.20
69054;DHT22;56125;52.242;4.756;2023-09-19T03:18:59;22.50;60.20
69054;DHT22;56125;52.242;4.756;2023-09-19T03:24:00;22.50;60.20
69054;DHT22;56125;52.242;4.756;2023-09-19T03:29:04;22.40;60.10
69054;DHT22;56125;52.242;4.756;2023-09-19T03:34:07;22.50;60.20
69054;DHT22;56125;52.242;4.756;2023-09-19T03:39:08;22.40;60.10
69054;DHT22;56125;52.242;4.756;2023-09-19T03:44:09;22.40;60.10
69054;DHT22;56125;52.242;4.756;2023-09-19T03:49:10;22.40;60.10
69054;DHT22;56125;52.242;4.756;2023-09-19T03:54:11;22.40;60.20
69054;DHT22;56125;52.242;4.756;2023-09-19T03:59:13;22.40;60.20
69054;DHT22;56125;52.242;4.756;2023-09-19T04:04:14;22.40;60.20
69054;DHT22;56125;52.242;4.756;2023-09-19T04:09:16;22.40;60.30
69054;DHT22;56125;52.242;4.756;2023-09-19T04:14:17;22.40;60.30
69054;DHT22;56125;52.242;4.756;2023-09-19T04:19:18;22.40;60.20
69054;DHT22;56125;52.242;4.756;2023-09-19T04:24:19;22.30;60.20
69054;DHT22;56125;52.242;4.756;2023-09-19T04:29:20;22.30;60.20
69054;DHT22;56125;52.242;4.756;2023-09-19T04:34:21;22.40;61.10
69054;DHT22;56125;52.242;4.756;2023-09-19T04:39:22;22.30;59.80
69054;DHT22;56125;52.242;4.756;2023-09-19T04:44:25;22.30;60.00
69054;DHT22;56125;52.242;4.756;2023-09-19T04:49:26;22.30;59.70
69054;DHT22;56125;52.242;4.756;2023-09-19T04:54:27;22.30;59.60
69054;DHT22;56125;52.242;4.756;2023-09-19T04:59:29;22.30;59.80
69054;DHT22;56125;52.242;4.756;2023-09-19T05:04:30;22.30;59.70
69054;DHT22;56125;52.242;4.756;2023-09-19T05:09:31;22.30;59.30
69054;DHT22;56125;52.242;4.756;2023-09-19T05:14:35;22.30;59.30
69054;DHT22;56125;52.242;4.756;2023-09-19T05:19:36;22.30;59.30
69054;DHT22;56125;52.242;4.756;2023-09-19T05:24:37;22.30;59.30
69054;DHT22;56125;52.242;4.756;2023-09-19T05:29:40;22.30;59.20
69054;DHT22;56125;52.242;4.756;2023-09-19T05:34:42;22.30;59.40
69054;DHT22;56125;52.242;4.756;2023-09-19T05:39:43;22.30;59.30
69054;DHT22;56125;52.242;4.756;2023-09-19T05:44:44;22.30;59.30
69054;DHT22;56125;52.242;4.756;2023-09-19T05:49:45;22.30;59.60
69054;DHT22;56125;52.242;4.756;2023-09-19T05:54:46;22.30;59.40
69054;DHT22;56125;52.242;4.756;2023-09-19T05:59:47;22.30;59.20
69054;DHT22;56125;52.242;4.756;2023-09-19T06:04:51;22.30;59.10
69054;DHT22;56125;52.242;4.756;2023-09-19T06:09:53;22.30;59.20
69054;DHT22;56125;52.242;4.756;2023-09-19T06:14:54;22.30;59.00
69054;DHT22;56125;52.242;4.756;2023-09-19T06:19:55;22.30;59.20
69054;DHT22;56125;52.242;4.756;2023-09-19T06:24:56;22.30;59.80
69054;DHT22;56125;52.242;4.756;2023-09-19T06:29:58;22.30;60.00
69054;DHT22;56125;52.242;4.756;2023-09-19T06:34:59;22.30;60.00
69054;DHT22;56125;52.242;4.756;2023-09-19T06:40:00;22.40;60.10
69054;DHT22;56125;52.242;4.756;2023-09-19T06:45:01;22.40;60.10
69054;DHT22;56125;52.242;4.756;2023-09-19T06:50:02;22.40;60.00
69054;DHT22;56125;52.242;4.756;2023-09-19T06:55:03;22.50;60.00
69054;DHT22;56125;52.242;4.756;2023-09-19T07:00:07;22.50;59.70
69054;DHT22;56125;52.242;4.756;2023-09-19T07:05:17;22.50;59.40
69054;DHT22;56125;52.242;4.756;2023-09-19T07:10:19;22.50;59.20
69054;DHT22;56125;52.242;4.756;2023-09-19T07:15:21;22.60;59.20
69054;DHT22;56125;52.242;4.756;2023-09-19T07:20:24;22.60;58.90
69054;DHT22;56125;52.242;4.756;2023-09-19T07:25:30;22.60;59.00
69054;DHT22;56125;52.242;4.756;2023-09-19T07:30:31;22.60;58.70
69054;DHT22;56125;52.242;4.756;2023-09-19T07:35:32;22.60;58.40
69054;DHT22;56125;52.242;4.756;2023-09-19T07:40:34;22.60;58.80
69054;DHT22;56125;52.242;4.756;2023-09-19T07:45:35;22.60;59.30
69054;DHT22;56125;52.242;4.756;2023-09-19T07:50:37;22.60;57.90
69054;DHT22;56125;52.242;4.756;2023-09-19T07:55:38;22.70;57.80
69054;DHT22;56125;52.242;4.756;2023-09-19T08:00:39;22.70;57.70
69054;DHT22;56125;52.242;4.756;2023-09-19T08:05:40;22.70;57.70
69054;DHT22;56125;52.242;4.756;2023-09-19T08:10:44;22.80;58.00
69054;DHT22;56125;52.242;4.756;2023-09-19T08:15:46;22.70;57.40
69054;DHT22;56125;52.242;4.756;2023-09-19T08:20:52;22.70;57.00
69054;DHT22;56125;52.242;4.756;2023-09-19T08:25:57;22.70;57.80
69054;DHT22;56125;52.242;4.756;2023-09-19T08:31:05;22.70;58.00
69054;DHT22;56125;52.242;4.756;2023-09-19T08:36:06;22.70;58.50
69054;DHT22;56125;52.242;4.756;2023-09-19T08:41:08;22.70;58.20
69054;DHT22;56125;52.242;4.756;2023-09-19T08:46:15;22.70;58.40
69054;DHT22;56125;52.242;4.756;2023-09-19T08:51:27;22.70;58.20
69054;DHT22;56125;52.242;4.756;2023-09-19T08:56:30;22.60;58.00
69054;DHT22;56125;52.242;4.756;2023-09-19T09:01:33;22.60;58.60
69054;DHT22;56125;52.242;4.756;2023-09-19T09:06:35;22.60;57.90
69054;DHT22;56125;52.242;4.756;2023-09-19T09:11:38;22.60;58.30
69054;DHT22;56125;52.242;4.756;2023-09-19T09:16:40;22.60;58.30
69054;DHT22;56125;52.242;4.756;2023-09-19T09:21:41;22.60;57.70
69054;DHT22;56125;52.242;4.756;2023-09-19T09:26:42;22.60;57.70
69054;DHT22;56125;52.242;4.756;2023-09-19T09:31:43;22.60;58.00
69054;DHT22;56125;52.242;4.756;2023-09-19T09:36:48;22.50;57.10
69054;DHT22;56125;52.242;4.756;2023-09-19T09:41:49;22.60;58.00
69054;DHT22;56125;52.242;4.756;2023-09-19T09:46:50;22.60;58.10
69054;DHT22;56125;52.242;4.756;2023-09-19T09:52:07;22.60;57.90
69054;DHT22;56125;52.242;4.756;2023-09-19T09:57:10;22.50;57.70
69054;DHT22;56125;52.242;4.756;2023-09-19T10:02:15;22.60;58.10
69054;DHT22;56125;52.242;4.756;2023-09-19T10:07:31;22.60;58.10
69054;DHT22;56125;52.242;4.756;2023-09-19T10:12:59;22.60;58.20
69054;DHT22;56125;52.242;4.756;2023-09-19T10:18:05;22.60;58.00
69054;DHT22;56125;52.242;4.756;2023-09-19T10:23:12;22.60;57.60
69054;DHT22;56125;52.242;4.756;2023-09-19T10:28:15;22.60;57.60
69054;DHT22;56125;52.242;4.756;2023-09-19T10:33:18;22.60;58.00
69054;DHT22;56125;52.242;4.756;2023-09-19T10:38:26;22.60;57.60
69054;DHT22;56125;52.242;4.756;2023-09-19T10:43:31;22.60;57.80
69054;DHT22;56125;52.242;4.756;2023-09-19T10:48:37;22.60;57.70
69054;DHT22;56125;52.242;4.756;2023-09-19T10:54:04;22.60;57.60
69054;DHT22;56125;52.242;4.756;2023-09-19T10:59:11;22.60;57.50
69054;DHT22;56125;52.242;4.756;2023-09-19T11:04:29;22.60;57.70
69054;DHT22;56125;52.242;4.756;2023-09-19T11:09:56;22.60;57.80
69054;DHT22;56125;52.242;4.756;2023-09-19T11:14:59;22.60;57.90
69054;DHT22;56125;52.242;4.756;2023-09-19T11:30:36;22.60;57.60
69054;DHT22;56125;52.242;4.756;2023-09-19T11:41:36;22.50;57.40
69054;DHT22;56125;52.242;4.756;2023-09-19T11:46:54;22.50;57.70
69054;DHT22;56125;52.242;4.756;2023-09-19T11:51:56;22.50;57.40
69054;DHT22;56125;52.242;4.756;2023-09-19T11:56:59;22.50;57.10
69054;DHT22;56125;52.242;4.756;2023-09-19T12:02:07;22.50;57.60
69054;DHT22;56125;52.242;4.756;2023-09-19T12:07:13;22.50;57.40
69054;DHT22;56125;52.242;4.756;2023-09-19T12:12:23;22.50;58.10
69054;DHT22;56125;52.242;4.756;2023-09-19T12:17:37;22.50;58.90
69054;DHT22;56125;52.242;4.756;2023-09-19T12:22:44;22.50;59.50
69054;DHT22;56125;52.242;4.756;2023-09-19T12:27:49;22.50;60.20
69054;DHT22;56125;52.242;4.756;2023-09-19T12:32:54;22.50;60.60
69054;DHT22;56125;52.242;4.756;2023-09-19T12:37:56;22.50;61.00
69054;DHT22;56125;52.242;4.756;2023-09-19T12:42:57;22.50;61.10
69054;DHT22;56125;52.242;4.756;2023-09-19T12:48:21;22.50;61.20
69054;DHT22;56125;52.242;4.756;2023-09-19T12:53:26;22.50;61.30
69054;DHT22;56125;52.242;4.756;2023-09-19T12:58:30;22.50;61.90
69054;DHT22;56125;52.242;4.756;2023-09-19T13:03:31;22.50;61.80
69054;DHT22;56125;52.242;4.756;2023-09-19T13:08:38;22.50;61.60
69054;DHT22;56125;52.242;4.756;2023-09-19T13:18:44;22.50;62.20
69054;DHT22;56125;52.242;4.756;2023-09-19T13:23:45;22.50;61.70
69054;DHT22;56125;52.242;4.756;2023-09-19T13:28:46;22.50;62.00
69054;DHT22;56125;52.242;4.756;2023-09-19T13:33:50;22.50;62.30
69054;DHT22;56125;52.242;4.756;2023-09-19T13:38:52;22.50;62.60
69054;DHT22;56125;52.242;4.756;2023-09-19T13:43:54;22.50;62.80
69054;DHT22;56125;52.242;4.756;2023-09-19T13:48:57;22.50;62.80
69054;DHT22;56125;52.242;4.756;2023-09-19T13:53:59;22.50;63.10
69054;DHT22;56125;52.242;4.756;2023-09-19T13:59:00;22.40;62.90
69054;DHT22;56125;52.242;4.756;2023-09-19T14:04:01;22.50;63.10
69054;DHT22;56125;52.242;4.756;2023-09-19T14:09:03;22.40;63.30
69054;DHT22;56125;52.242;4.756;2023-09-19T14:14:04;22.50;63.60
69054;DHT22;56125;52.242;4.756;2023-09-19T14:19:06;22.50;63.70
69054;DHT22;56125;52.242;4.756;2023-09-19T14:24:09;22.40;63.70
69054;DHT22;56125;52.242;4.756;2023-09-19T14:29:10;22.40;63.60
69054;DHT22;56125;52.242;4.756;2023-09-19T14:34:12;22.40;63.80
69054;DHT22;56125;52.242;4.756;2023-09-19T14:39:13;22.40;63.90
69054;DHT22;56125;52.242;4.756;2023-09-19T14:44:14;22.40;64.00
69054;DHT22;56125;52.242;4.756;2023-09-19T14:49:18;22.40;63.90
69054;DHT22;56125;52.242;4.756;2023-09-19T14:54:19;22.40;64.00
69054;DHT22;56125;52.242;4.756;2023-09-19T14:59:21;22.50;64.20
69054;DHT22;56125;52.242;4.756;2023-09-19T15:04:22;22.50;64.40
69054;DHT22;56125;52.242;4.756;2023-09-19T15:09:25;22.60;65.00
69054;DHT22;56125;52.242;4.756;2023-09-19T15:14:26;22.60;65.10
69054;DHT22;56125;52.242;4.756;2023-09-19T15:19:27;22.70;65.20
69054;DHT22;56125;52.242;4.756;2023-09-19T15:24:28;22.70;65.30
69054;DHT22;56125;52.242;4.756;2023-09-19T15:29:30;22.70;65.70
69054;DHT22;56125;52.242;4.756;2023-09-19T15:34:31;22.70;65.50
69054;DHT22;56125;52.242;4.756;2023-09-19T15:39:32;22.80;66.10
69054;DHT22;56125;52.242;4.756;2023-09-19T15:44:37;22.80;65.90
69054;DHT22;56125;52.242;4.756;2023-09-19T15:49:38;22.90;65.80
69054;DHT22;56125;52.242;4.756;2023-09-19T15:54:39;22.90;65.90
69054;DHT22;56125;52.242;4.756;2023-09-19T15:59:45;22.90;65.70
69054;DHT22;56125;52.242;4.756;2023-09-19T16:04:49;22.90;64.70
69054;DHT22;56125;52.242;4.756;2023-09-19T16:09:50;22.80;63.80
69054;DHT22;56125;52.242;4.756;2023-09-19T16:14:51;22.80;63.70
69054;DHT22;56125;52.242;4.756;2023-09-19T16:19:52;22.80;63.30
69054;DHT22;56125;52.242;4.756;2023-09-19T16:24:53;22.80;63.30
69054;DHT22;56125;52.242;4.756;2023-09-19T16:29:54;22.70;63.50
69054;DHT22;56125;52.242;4.756;2023-09-19T16:34:55;22.70;63.50
69054;DHT22;56125;52.242;4.756;2023-09-19T16:39:56;22.60;63.70
69054;DHT22;56125;52.242;4.756;2023-09-19T16:44:57;22.60;63.70
69054;DHT22;56125;52.242;4.756;2023-09-19T16:49:59;22.60;63.90
69054;DHT22;56125;52.242;4.756;2023-09-19T16:55:00;22.60;64.00
69054;DHT22;56125;52.242;4.756;2023-09-19T17:00:01;22.60;64.10
69054;DHT22;56125;52.242;4.756;2023-09-19T17:05:04;22.60;65.40
69054;DHT22;56125;52.242;4.756;2023-09-19T17:10:05;22.60;64.50
69054;DHT22;56125;52.242;4.756;2023-09-19T17:15:07;22.60;64.20
69054;DHT22;56125;52.242;4.756;2023-09-19T17:20:08;22.70;63.90
69054;DHT22;56125;52.242;4.756;2023-09-19T17:25:09;22.70;65.40
69054;DHT22;56125;52.242;4.756;2023-09-19T17:30:13;22.70;65.00
69054;DHT22;56125;52.242;4.756;2023-09-19T17:35:16;22.70;65.00
69054;DHT22;56125;52.242;4.756;2023-09-19T17:40:18;22.70;65.20
69054;DHT22;56125;52.242;4.756;2023-09-19T17:45:19;22.70;65.00
69054;DHT22;56125;52.242;4.756;2023-09-19T17:50:20;22.70;64.50
69054;DHT22;56125;52.242;4.756;2023-09-19T17:55:21;22.80;65.00
69054;DHT22;56125;52.242;4.756;2023-09-19T18:00:22;22.80;65.10
69054;DHT22;56125;52.242;4.756;2023-09-19T18:05:23;22.80;65.70
69054;DHT22;56125;52.242;4.756;2023-09-19T18:10:24;22.80;65.00
69054;DHT22;56125;52.242;4.756;2023-09-19T18:15:27;22.80;64.70
69054;DHT22;56125;52.242;4.756;2023-09-19T18:20:34;22.70;65.40
69054;DHT22;56125;52.242;4.756;2023-09-19T18:25:35;22.70;65.10
69054;DHT22;56125;52.242;4.756;2023-09-19T18:30:38;22.70;65.30
69054;DHT22;56125;52.242;4.756;2023-09-19T18:35:39;22.70;65.20
69054;DHT22;56125;52.242;4.756;2023-09-19T18:40:44;22.60;65.30
69054;DHT22;56125;52.242;4.756;2023-09-19T18:45:57;22.60;65.20
69054;DHT22;56125;52.242;4.756;2023-09-19T18:51:04;22.60;65.10
69054;DHT22;56125;52.242;4.756;2023-09-19T18:56:09;22.60;65.10
69054;DHT22;56125;52.242;4.756;2023-09-19T19:01:18;22.60;65.00
69054;DHT22;56125;52.242;4.756;2023-09-19T19:06:19;22.60;65.00
69054;DHT22;56125;52.242;4.756;2023-09-19T19:11:22;22.60;65.00
69054;DHT22;56125;52.242;4.756;2023-09-19T19:16:26;22.60;65.00
69054;DHT22;56125;52.242;4.756;2023-09-19T19:21:27;22.60;65.00
69054;DHT22;56125;52.242;4.756;2023-09-19T19:26:28;22.60;65.00
69054;DHT22;56125;52.242;4.756;2023-09-19T19:31:29;22.50;64.90
69054;DHT22;56125;52.242;4.756;2023-09-19T19:36:33;22.60;65.00
69054;DHT22;56125;52.242;4.756;2023-09-19T19:41:35;22.50;64.90
69054;DHT22;56125;52.242;4.756;2023-09-19T19:46:39;22.50;64.90
69054;DHT22;56125;52.242;4.756;2023-09-19T19:51:40;22.50;64.90
69054;DHT22;56125;52.242;4.756;2023-09-19T19:56:42;22.50;64.90
69054;DHT22;56125;52.242;4.756;2023-09-19T20:01:43;22.50;64.80
69054;DHT22;56125;52.242;4.756;2023-09-19T20:06:44;22.50;64.90
69054;DHT22;56125;52.242;4.756;2023-09-19T20:11:46;22.50;64.90
69054;DHT22;56125;52.242;4.756;2023-09-19T20:16:47;22.50;64.90
69054;DHT22;56125;52.242;4.756;2023-09-19T20:21:49;22.60;65.10
69054;DHT22;56125;52.242;4.756;2023-09-19T20:26:50;22.60;65.60
69054;DHT22;56125;52.242;4.756;2023-09-19T20:31:52;22.60;65.70
69054;DHT22;56125;52.242;4.756;2023-09-19T20:36:55;22.60;65.60
69054;DHT22;56125;52.242;4.756;2023-09-19T20:41:56;22.70;65.80
69054;DHT22;56125;52.242;4.756;2023-09-19T20:46:57;22.70;66.20
69054;DHT22;56125;52.242;4.756;2023-09-19T20:51:58;22.70;66.00
69054;DHT22;56125;52.242;4.756;2023-09-19T20:56:59;22.70;66.00
69054;DHT22;56125;52.242;4.756;2023-09-19T21:02:00;22.70;65.90
69054;DHT22;56125;52.242;4.756;2023-09-19T21:07:01;22.70;65.80
69054;DHT22;56125;52.242;4.756;2023-09-19T21:12:03;22.80;65.80
69054;DHT22;56125;52.242;4.756;2023-09-19T21:17:05;22.80;65.70
69054;DHT22;56125;52.242;4.756;2023-09-19T21:22:06;22.80;65.80
69054;DHT22;56125;52.242;4.756;2023-09-19T21:27:07;22.80;65.60
69054;DHT22;56125;52.242;4.756;2023-09-19T21:32:08;22.80;65.50
69054;DHT22;56125;52.242;4.756;2023-09-19T21:37:10;22.80;65.10
69054;DHT22;56125;52.242;4.756;2023-09-19T21:42:14;22.80;64.60
69054;DHT22;56125;52.242;4.756;2023-09-19T21:47:15;22.70;64.70
69054;DHT22;56125;52.242;4.756;2023-09-19T21:52:16;22.70;64.60
69054;DHT22;56125;52.242;4.756;2023-09-19T21:57:17;22.70;64.60
69054;DHT22;56125;52.242;4.756;2023-09-19T22:02:18;22.70;64.50
69054;DHT22;56125;52.242;4.756;2023-09-19T22:07:19;22.60;64.70
69054;DHT22;56125;52.242;4.756;2023-09-19T22:12:21;22.60;64.70
69054;DHT22;56125;52.242;4.756;2023-09-19T22:17:22;22.60;65.80
69054;DHT22;56125;52.242;4.756;2023-09-19T22:22:23;22.60;64.50
69054;DHT22;56125;52.242;4.756;2023-09-19T22:27:26;22.60;64.50
69054;DHT22;56125;52.242;4.756;2023-09-19T22:32:28;22.60;64.50
69054;DHT22;56125;52.242;4.756;2023-09-19T22:37:29;22.60;64.40
69054;DHT22;56125;52.242;4.756;2023-09-19T22:42:30;22.60;64.40
69054;DHT22;56125;52.242;4.756;2023-09-19T22:47:31;22.60;64.40
69054;DHT22;56125;52.242;4.756;2023-09-19T22:52:32;22.50;64.30
69054;DHT22;56125;52.242;4.756;2023-09-19T22:57:37;22.60;64.30
69054;DHT22;56125;52.242;4.756;2023-09-19T23:02:38;22.50;64.20
69054;DHT22;56125;52.242;4.756;2023-09-19T23:07:42;22.50;64.20
69054;DHT22;56125;52.242;4.756;2023-09-19T23:12:48;22.50;64.10
69054;DHT22;56125;52.242;4.756;2023-09-19T23:17:50;22.50;64.10
69054;DHT22;56125;52.242;4.756;2023-09-19T23:22:52;22.50;64.10
69054;DHT22;56125;52.242;4.756;2023-09-19T23:27:55;22.50;64.10
69054;DHT22;56125;52.242;4.756;2023-09-19T23:33:03;22.50;64.00
69054;DHT22;56125;52.242;4.756;2023-09-19T23:38:04;22.50;63.90
69054;DHT22;56125;52.242;4.756;2023-09-19T23:43:07;22.50;63.90
69054;DHT22;56125;52.242;4.756;2023-09-19T23:48:12;22.50;63.90
69054;DHT22;56125;52.242;4.756;2023-09-19T23:53:13;22.50;63.90
69054;DHT22;56125;52.242;4.756;2023-09-19T23:58:15;22.50;63.90
